sensor_id;sensor_type;location;lat;lon;timestamp;pressure;altitude;pressure_sealevel;temperature;humidity
17209;BME280;8720;48.488;9.202;2023-07-30T00:02:15;96638.34;;;23.95;59.17
17209;BME280;8720;48.488;9.202;2023-07-30T00:04:43;96609.75;;;23.75;58.85
17209;BME280;8720;48.488;9.202;2023-07-30T00:07:11;96635.59;;;23.85;59.10
17209;BME280;8720;48.488;9.202;2023-07-30T00:09:39;96634.25;;;23.80;58.73
17209;BME280;8720;48.488;9.202;2023-07-30T00:12:08;96643.50;;;23.76;59.02
17209;BME280;8720;48.488;9.202;2023-07-30T00:14:36;96649.97;;;23.73;58.87
17209;BME280;8720;48.488;9.202;2023-07-30T00:17:05;96649.25;;;23.71;59.40
17209;BME280;8720;48.488;9.202;2023-07-30T00:19:32;96650.19;;;23.70;59.06
17209;BME280;8720;48.488;9.202;2023-07-30T00:22:01;96644.84;;;23.70;59.36
17209;BME280;8720;48.488;9.202;2023-07-30T00:24:28;96647.44;;;23.72;59.73
17209;BME280;8720;48.488;9.202;2023-07-30T00:26:56;96642.09;;;23.72;59.55
17209;BME280;8720;48.488;9.202;2023-07-30T00:29:23;96640.25;;;23.72;59.45
17209;BME280;8720;48.488;9.202;2023-07-30T00:31:50;96645.59;;;23.72;59.80
17209;BME280;8720;48.488;9.202;2023-07-30T00:34:19;96649.97;;;23.73;59.55
17209;BME280;8720;48.488;9.202;2023-07-30T00:36:46;96644.63;;;23.73;59.67
17209;BME280;8720;48.488;9.202;2023-07-30T00:39:13;96645.47;;;23.74;59.42
17209;BME280;8720;48.488;9.202;2023-07-30T00:41:41;96644.50;;;23.75;59.38
17209;BME280;8720;48.488;9.202;2023-07-30T00:44:08;96648.03;;;23.75;59.58
17209;BME280;8720;48.488;9.202;2023-07-30T00:46:36;96655.19;;;23.75;59.02
17209;BME280;8720;48.488;9.202;2023-07-30T00:49:04;96657.97;;;23.73;59.13
17209;BME280;8720;48.488;9.202;2023-07-30T00:51:33;96669.53;;;23.74;59.46
17209;BME280;8720;48.488;9.202;2023-07-30T00:54:01;96667.81;;;23.73;59.02
17209;BME280;8720;48.488;9.202;2023-07-30T00:56:30;96667.81;;;23.73;58.91
17209;BME280;8720;48.488;9.202;2023-07-30T00:58:57;96674.16;;;23.72;59.15
17209;BME280;8720;48.488;9.202;2023-07-30T01:01:26;96673.16;;;23.73;59.44
17209;BME280;8720;48.488;9.202;2023-07-30T01:03:53;96681.03;;;23.74;59.39
17209;BME280;8720;48.488;9.202;2023-07-30T01:06:21;96680.91;;;23.76;59.07
17209;BME280;8720;48.488;9.202;2023-07-30T01:08:51;96683.47;;;23.77;59.02
17209;BME280;8720;48.488;9.202;2023-07-30T01:11:19;96683.47;;;23.77;59.07
17209;BME280;8720;48.488;9.202;2023-07-30T01:13:47;96696.94;;;23.76;59.07
17209;BME280;8720;48.488;9.202;2023-07-30T01:16:15;96691.84;;;23.73;59.36
17209;BME280;8720;48.488;9.202;2023-07-30T01:18:42;96683.97;;;23.71;59.28
17209;BME280;8720;48.488;9.202;2023-07-30T01:21:11;96686.88;;;23.68;59.40
17209;BME280;8720;48.488;9.202;2023-07-30T01:23:38;96689.81;;;23.65;59.17
17209;BME280;8720;48.488;9.202;2023-07-30T01:26:10;96675.75;;;23.52;59.08
17209;BME280;8720;48.488;9.202;2023-07-30T01:28:45;96686.03;;;23.57;59.11
17209;BME280;8720;48.488;9.202;2023-07-30T01:31:16;96681.81;;;23.54;58.94
17209;BME280;8720;48.488;9.202;2023-07-30T01:33:48;96680.97;;;23.54;59.08
17209;BME280;8720;48.488;9.202;2023-07-30T01:36:21;96696.41;;;23.50;58.95
17209;BME280;8720;48.488;9.202;2023-07-30T01:38:50;96701.00;;;23.48;58.89
17209;BME280;8720;48.488;9.202;2023-07-30T01:41:18;96696.63;;;23.47;58.79
17209;BME280;8720;48.488;9.202;2023-07-30T01:43:45;96693.94;;;23.47;58.93
17209;BME280;8720;48.488;9.202;2023-07-30T01:46:13;96686.94;;;23.46;58.86
17209;BME280;8720;48.488;9.202;2023-07-30T01:48:40;96682.66;;;23.43;58.76
17209;BME280;8720;48.488;9.202;2023-07-30T01:51:07;96685.47;;;23.42;58.92
17209;BME280;8720;48.488;9.202;2023-07-30T01:53:38;96678.69;;;23.38;58.85
17209;BME280;8720;48.488;9.202;2023-07-30T01:56:05;96685.38;;;23.32;58.86
17209;BME280;8720;48.488;9.202;2023-07-30T01:58:33;96679.63;;;23.26;59.03
17209;BME280;8720;48.488;9.202;2023-07-30T02:03:38;96680.22;;;23.18;58.88
17209;BME280;8720;48.488;9.202;2023-07-30T02:06:05;96685.81;;;23.15;59.10
17209;BME280;8720;48.488;9.202;2023-07-30T02:08:32;96683.38;;;23.12;58.81
17209;BME280;8720;48.488;9.202;2023-07-30T02:11:01;96680.97;;;23.09;58.77
17209;BME280;8720;48.488;9.202;2023-07-30T02:13:29;96680.59;;;23.03;58.91
17209;BME280;8720;48.488;9.202;2023-07-30T02:15:56;96680.50;;;23.04;59.15
17209;BME280;8720;48.488;9.202;2023-07-30T02:18:23;96678.06;;;23.01;58.62
17209;BME280;8720;48.488;9.202;2023-07-30T02:20:51;96668.09;;;22.92;58.98
17209;BME280;8720;48.488;9.202;2023-07-30T02:23:18;96683.75;;;22.97;59.17
17209;BME280;8720;48.488;9.202;2023-07-30T02:25:45;96682.91;;;22.96;59.48
17209;BME280;8720;48.488;9.202;2023-07-30T02:28:14;96691.88;;;22.95;59.29
17209;BME280;8720;48.488;9.202;2023-07-30T02:30:41;96684.72;;;22.96;59.12
17209;BME280;8720;48.488;9.202;2023-07-30T02:33:08;96685.66;;;22.95;58.73
17209;BME280;8720;48.488;9.202;2023-07-30T02:35:36;96681.91;;;22.86;59.12
17209;BME280;8720;48.488;9.202;2023-07-30T02:38:03;96691.25;;;22.92;59.09
17209;BME280;8720;48.488;9.202;2023-07-30T02:40:31;96684.34;;;22.89;59.13
17209;BME280;8720;48.488;9.202;2023-07-30T02:42:58;96683.72;;;22.86;58.96
17209;BME280;8720;48.488;9.202;2023-07-30T02:45:27;96688.47;;;22.82;59.42
17209;BME280;8720;48.488;9.202;2023-07-30T02:47:54;96687.00;;;22.78;59.16
17209;BME280;8720;48.488;9.202;2023-07-30T02:50:22;96689.06;;;22.75;59.04
17209;BME280;8720;48.488;9.202;2023-07-30T02:52:49;96684.94;;;22.71;59.08
17209;BME280;8720;48.488;9.202;2023-07-30T02:55:16;96686.25;;;22.65;59.69
17209;BME280;8720;48.488;9.202;2023-07-30T02:57:44;96690.13;;;22.61;59.50
17209;BME280;8720;48.488;9.202;2023-07-30T03:00:12;96690.38;;;22.58;59.62
17209;BME280;8720;48.488;9.202;2023-07-30T03:02:41;96695.91;;;22.55;59.76
17209;BME280;8720;48.488;9.202;2023-07-30T03:05:09;96685.34;;;22.53;59.51
17209;BME280;8720;48.488;9.202;2023-07-30T03:07:36;96691.75;;;22.51;59.47
17209;BME280;8720;48.488;9.202;2023-07-30T03:10:04;96692.00;;;22.48;59.54
17209;BME280;8720;48.488;9.202;2023-07-30T03:12:32;96693.81;;;22.47;59.59
17209;BME280;8720;48.488;9.202;2023-07-30T03:14:59;96689.56;;;22.45;59.46
17209;BME280;8720;48.488;9.202;2023-07-30T03:17:26;96681.69;;;22.43;59.32
17209;BME280;8720;48.488;9.202;2023-07-30T03:19:55;96683.75;;;22.40;59.54
17209;BME280;8720;48.488;9.202;2023-07-30T03:22:22;96680.34;;;22.38;59.62
17209;BME280;8720;48.488;9.202;2023-07-30T03:24:50;96677.66;;;22.38;59.93
17209;BME280;8720;48.488;9.202;2023-07-30T03:27:17;96685.66;;;22.38;59.36
17209;BME280;8720;48.488;9.202;2023-07-30T03:29:44;96688.34;;;22.38;59.46
17209;BME280;8720;48.488;9.202;2023-07-30T03:32:12;96684.69;;;22.39;59.50
17209;BME280;8720;48.488;9.202;2023-07-30T03:34:39;96677.44;;;22.41;59.62
17209;BME280;8720;48.488;9.202;2023-07-30T03:37:07;96684.47;;;22.42;60.04
17209;BME280;8720;48.488;9.202;2023-07-30T03:39:35;96684.47;;;22.42;59.68
17209;BME280;8720;48.488;9.202;2023-07-30T03:42:03;96688.81;;;22.43;59.89
17209;BME280;8720;48.488;9.202;2023-07-30T03:44:30;96693.19;;;22.44;59.78
17209;BME280;8720;48.488;9.202;2023-07-30T03:46:57;96693.81;;;22.47;59.73
17209;BME280;8720;48.488;9.202;2023-07-30T03:49:25;96700.75;;;22.50;59.75
17209;BME280;8720;48.488;9.202;2023-07-30T03:51:52;96711.16;;;22.53;59.65
17209;BME280;8720;48.488;9.202;2023-07-30T03:54:21;96708.38;;;22.54;59.60
17209;BME280;8720;48.488;9.202;2023-07-30T03:56:48;96708.28;;;22.56;59.63
17209;BME280;8720;48.488;9.202;2023-07-30T03:59:15;96718.84;;;22.58;59.75
17209;BME280;8720;48.488;9.202;2023-07-30T04:01:43;96720.41;;;22.60;60.00
17209;BME280;8720;48.488;9.202;2023-07-30T04:04:10;96722.00;;;22.63;59.55
17209;BME280;8720;48.488;9.202;2023-07-30T04:06:37;96717.28;;;22.66;59.63
17209;BME280;8720;48.488;9.202;2023-07-30T04:09:04;96718.88;;;22.69;59.90
17209;BME280;8720;48.488;9.202;2023-07-30T04:11:33;96725.06;;;22.69;59.50
17209;BME280;8720;48.488;9.202;2023-07-30T04:14:00;96723.97;;;22.72;59.98
17209;BME280;8720;48.488;9.202;2023-07-30T04:16:27;96715.75;;;22.75;59.20
17209;BME280;8720;48.488;9.202;2023-07-30T04:18:55;96736.94;;;22.76;59.84
17209;BME280;8720;48.488;9.202;2023-07-30T04:21:22;96737.81;;;22.77;59.39
17209;BME280;8720;48.488;9.202;2023-07-30T04:23:49;96738.41;;;22.80;59.72
17209;BME280;8720;48.488;9.202;2023-07-30T04:26:17;96739.88;;;22.84;59.30
17209;BME280;8720;48.488;9.202;2023-07-30T04:28:46;96746.81;;;22.87;59.65
17209;BME280;8720;48.488;9.202;2023-07-30T04:31:13;96748.38;;;22.89;59.58
17209;BME280;8720;48.488;9.202;2023-07-30T04:33:41;96750.69;;;22.94;59.60
17209;BME280;8720;48.488;9.202;2023-07-30T04:36:08;96756.63;;;22.97;59.52
17209;BME280;8720;48.488;9.202;2023-07-30T04:38:35;96755.56;;;23.00;59.03
17209;BME280;8720;48.488;9.202;2023-07-30T04:41:03;96761.50;;;23.03;59.37
17209;BME280;8720;48.488;9.202;2023-07-30T04:43:35;96757.19;;;23.35;58.86
17209;BME280;8720;48.488;9.202;2023-07-30T04:46:05;96749.75;;;23.28;58.80
17209;BME280;8720;48.488;9.202;2023-07-30T04:48:32;96743.81;;;23.24;58.97
17209;BME280;8720;48.488;9.202;2023-07-30T04:51:00;96745.63;;;23.24;59.49
17209;BME280;8720;48.488;9.202;2023-07-30T04:53:28;96738.47;;;23.24;58.80
17209;BME280;8720;48.488;9.202;2023-07-30T04:58:24;96737.63;;;23.24;59.12
17209;BME280;8720;48.488;9.202;2023-07-30T05:00:51;96746.25;;;23.27;59.37
17209;BME280;8720;48.488;9.202;2023-07-30T05:03:20;96744.41;;;23.28;59.06
17209;BME280;8720;48.488;9.202;2023-07-30T05:05:47;96745.28;;;23.28;59.03
17209;BME280;8720;48.488;9.202;2023-07-30T05:08:14;96759.25;;;23.32;58.72
17209;BME280;8720;48.488;9.202;2023-07-30T05:10:41;96755.25;;;23.37;59.62
17209;BME280;8720;48.488;9.202;2023-07-30T05:13:08;96766.16;;;23.57;59.60
17209;BME280;8720;48.488;9.202;2023-07-30T05:15:36;96757.44;;;23.77;59.38
17209;BME280;8720;48.488;9.202;2023-07-30T05:18:03;96758.72;;;23.93;59.31
17209;BME280;8720;48.488;9.202;2023-07-30T05:20:32;96757.63;;;24.07;59.04
17209;BME280;8720;48.488;9.202;2023-07-30T05:22:59;96769.28;;;24.17;59.17
17209;BME280;8720;48.488;9.202;2023-07-30T05:25:28;96766.84;;;24.25;58.55
17209;BME280;8720;48.488;9.202;2023-07-30T05:27:55;96762.66;;;24.32;58.06
17209;BME280;8720;48.488;9.202;2023-07-30T05:30:22;96758.63;;;24.38;57.80
17209;BME280;8720;48.488;9.202;2023-07-30T05:32:50;96764.34;;;24.44;58.17
17209;BME280;8720;48.488;9.202;2023-07-30T05:35:17;96764.78;;;24.49;57.41
17209;BME280;8720;48.488;9.202;2023-07-30T05:37:46;96759.91;;;24.54;57.53
17209;BME280;8720;48.488;9.202;2023-07-30T05:40:13;96764.88;;;24.59;57.15
17209;BME280;8720;48.488;9.202;2023-07-30T05:42:40;96769.69;;;24.65;57.74
17209;BME280;8720;48.488;9.202;2023-07-30T05:45:09;96776.38;;;24.70;57.08
17209;BME280;8720;48.488;9.202;2023-07-30T05:47:36;96773.34;;;24.75;57.55
17209;BME280;8720;48.488;9.202;2023-07-30T05:50:04;96771.25;;;24.78;57.39
17209;BME280;8720;48.488;9.202;2023-07-30T05:52:32;96768.34;;;24.81;56.63
17209;BME280;8720;48.488;9.202;2023-07-30T05:55:00;96772.44;;;24.85;57.27
17209;BME280;8720;48.488;9.202;2023-07-30T05:57:28;96778.19;;;25.01;57.44
17209;BME280;8720;48.488;9.202;2023-07-30T05:59:55;96779.03;;;25.22;57.02
17209;BME280;8720;48.488;9.202;2023-07-30T06:02:22;96776.72;;;25.39;56.50
17209;BME280;8720;48.488;9.202;2023-07-30T06:04:49;96776.28;;;25.54;56.76
17209;BME280;8720;48.488;9.202;2023-07-30T06:07:16;96783.25;;;25.66;56.30
17209;BME280;8720;48.488;9.202;2023-07-30T06:09:44;96775.25;;;25.76;55.99
17209;BME280;8720;48.488;9.202;2023-07-30T06:12:13;96774.31;;;25.96;55.84
17209;BME280;8720;48.488;9.202;2023-07-30T06:14:40;96776.94;;;26.07;55.46
17209;BME280;8720;48.488;9.202;2023-07-30T06:17:08;96774.84;;;26.20;55.39
17209;BME280;8720;48.488;9.202;2023-07-30T06:19:35;96790.94;;;26.30;55.37
17209;BME280;8720;48.488;9.202;2023-07-30T06:22:02;96786.16;;;26.33;54.94
17209;BME280;8720;48.488;9.202;2023-07-30T06:24:30;96782.34;;;26.36;55.23
17209;BME280;8720;48.488;9.202;2023-07-30T06:26:57;96782.34;;;26.36;55.14
17209;BME280;8720;48.488;9.202;2023-07-30T06:29:26;96783.31;;;26.35;54.94
17209;BME280;8720;48.488;9.202;2023-07-30T06:31:53;96777.81;;;26.36;55.02
17209;BME280;8720;48.488;9.202;2023-07-30T06:34:20;96774.47;;;26.44;55.31
17209;BME280;8720;48.488;9.202;2023-07-30T06:36:47;96771.78;;;26.53;54.78
17209;BME280;8720;48.488;9.202;2023-07-30T06:39:15;96780.94;;;26.60;54.61
17209;BME280;8720;48.488;9.202;2023-07-30T06:41:42;96781.09;;;26.68;54.46
17209;BME280;8720;48.488;9.202;2023-07-30T06:44:09;96793.00;;;26.75;54.34
17209;BME280;8720;48.488;9.202;2023-07-30T06:46:38;96795.69;;;26.85;53.97
17209;BME280;8720;48.488;9.202;2023-07-30T06:49:05;96803.31;;;26.99;54.31
17209;BME280;8720;48.488;9.202;2023-07-30T06:51:33;96804.13;;;27.28;54.42
17209;BME280;8720;48.488;9.202;2023-07-30T06:54:00;96797.75;;;27.85;54.23
17209;BME280;8720;48.488;9.202;2023-07-30T06:56:27;96810.72;;;28.53;53.57
17209;BME280;8720;48.488;9.202;2023-07-30T06:58:54;96801.44;;;29.18;52.21
17209;BME280;8720;48.488;9.202;2023-07-30T07:01:21;96812.59;;;29.67;51.44
17209;BME280;8720;48.488;9.202;2023-07-30T07:03:50;96799.00;;;30.02;50.10
17209;BME280;8720;48.488;9.202;2023-07-30T07:06:17;96804.13;;;30.21;49.18
17209;BME280;8720;48.488;9.202;2023-07-30T07:08:44;96806.72;;;30.30;48.95
17209;BME280;8720;48.488;9.202;2023-07-30T07:11:12;96805.69;;;30.31;48.02
17209;BME280;8720;48.488;9.202;2023-07-30T07:13:39;96812.47;;;30.27;47.71
17209;BME280;8720;48.488;9.202;2023-07-30T07:16:06;96822.34;;;30.19;48.11
17209;BME280;8720;48.488;9.202;2023-07-30T07:18:33;96817.41;;;30.06;47.38
17209;BME280;8720;48.488;9.202;2023-07-30T07:21:02;96816.47;;;29.90;47.23
17209;BME280;8720;48.488;9.202;2023-07-30T07:23:30;96816.34;;;29.74;47.09
17209;BME280;8720;48.488;9.202;2023-07-30T07:25:57;96815.56;;;29.55;47.50
17209;BME280;8720;48.488;9.202;2023-07-30T07:28:24;96812.03;;;29.37;47.42
17209;BME280;8720;48.488;9.202;2023-07-30T07:30:51;96814.31;;;29.24;47.46
17209;BME280;8720;48.488;9.202;2023-07-30T07:33:18;96817.25;;;29.13;47.78
17209;BME280;8720;48.488;9.202;2023-07-30T07:35:46;96812.63;;;29.06;47.92
17209;BME280;8720;48.488;9.202;2023-07-30T07:38:14;96812.91;;;29.03;47.92
17209;BME280;8720;48.488;9.202;2023-07-30T07:40:42;96825.00;;;28.99;48.56
17209;BME280;8720;48.488;9.202;2023-07-30T07:43:09;96829.63;;;28.89;48.24
17209;BME280;8720;48.488;9.202;2023-07-30T07:45:36;96831.84;;;28.76;48.52
17209;BME280;8720;48.488;9.202;2023-07-30T07:48:04;96847.16;;;28.57;48.32
17209;BME280;8720;48.488;9.202;2023-07-30T07:50:31;96862.69;;;28.36;49.12
17209;BME280;8720;48.488;9.202;2023-07-30T07:52:58;96867.03;;;28.10;49.65
17209;BME280;8720;48.488;9.202;2023-07-30T07:55:27;96865.00;;;27.75;50.78
17209;BME280;8720;48.488;9.202;2023-07-30T07:57:54;96862.25;;;27.39;51.77
17209;BME280;8720;48.488;9.202;2023-07-30T08:00:22;96874.56;;;27.03;52.27
17209;BME280;8720;48.488;9.202;2023-07-30T08:02:49;96860.91;;;26.66;52.71
17209;BME280;8720;48.488;9.202;2023-07-30T08:05:16;96874.81;;;26.32;53.79
17209;BME280;8720;48.488;9.202;2023-07-30T08:07:46;96863.09;;;26.02;54.68
17209;BME280;8720;48.488;9.202;2023-07-30T08:10:13;96865.84;;;25.82;55.24
17209;BME280;8720;48.488;9.202;2023-07-30T08:12:42;96872.13;;;25.71;55.92
17209;BME280;8720;48.488;9.202;2023-07-30T08:15:10;96868.16;;;25.66;55.85
17209;BME280;8720;48.488;9.202;2023-07-30T08:17:37;96867.03;;;25.68;56.69
17209;BME280;8720;48.488;9.202;2023-07-30T08:20:06;96853.78;;;25.76;56.97
17209;BME280;8720;48.488;9.202;2023-07-30T08:22:33;96853.50;;;26.00;57.40
17209;BME280;8720;48.488;9.202;2023-07-30T08:25:01;96849.09;;;26.20;56.91
17209;BME280;8720;48.488;9.202;2023-07-30T08:27:29;96856.63;;;26.35;57.59
17209;BME280;8720;48.488;9.202;2023-07-30T08:29:57;96854.97;;;26.53;57.50
17209;BME280;8720;48.488;9.202;2023-07-30T08:32:25;96854.56;;;26.67;57.34
17209;BME280;8720;48.488;9.202;2023-07-30T08:34:52;96857.97;;;26.79;56.79
17209;BME280;8720;48.488;9.202;2023-07-30T08:37:19;96863.38;;;26.88;56.71
17209;BME280;8720;48.488;9.202;2023-07-30T08:39:46;96855.31;;;26.98;57.25
17209;BME280;8720;48.488;9.202;2023-07-30T08:42:14;96855.44;;;27.06;56.81
17209;BME280;8720;48.488;9.202;2023-07-30T08:44:41;96859.41;;;27.12;56.92
17209;BME280;8720;48.488;9.202;2023-07-30T08:47:10;96860.97;;;27.14;56.20
17209;BME280;8720;48.488;9.202;2023-07-30T08:49:37;96853.19;;;27.21;55.93
17209;BME280;8720;48.488;9.202;2023-07-30T08:52:09;96851.94;;;27.25;56.57
17209;BME280;8720;48.488;9.202;2023-07-30T08:54:38;96853.19;;;27.30;55.87
17209;BME280;8720;48.488;9.202;2023-07-30T08:57:07;96841.91;;;27.36;56.52
17209;BME280;8720;48.488;9.202;2023-07-30T08:59:42;96859.00;;;27.45;56.62
17209;BME280;8720;48.488;9.202;2023-07-30T09:02:24;96848.22;;;27.54;57.13
17209;BME280;8720;48.488;9.202;2023-07-30T09:04:56;96848.91;;;27.66;56.23
17209;BME280;8720;48.488;9.202;2023-07-30T09:07:25;96856.94;;;27.75;55.86
17209;BME280;8720;48.488;9.202;2023-07-30T09:09:52;96860.88;;;27.81;55.24
17209;BME280;8720;48.488;9.202;2023-07-30T09:12:20;96852.97;;;27.79;54.75
17209;BME280;8720;48.488;9.202;2023-07-30T09:14:52;96851.41;;;27.77;54.80
17209;BME280;8720;48.488;9.202;2023-07-30T09:17:20;96847.44;;;27.81;54.14
17209;BME280;8720;48.488;9.202;2023-07-30T09:19:48;96862.28;;;27.85;55.01
17209;BME280;8720;48.488;9.202;2023-07-30T09:22:23;96861.84;;;27.90;54.27
17209;BME280;8720;48.488;9.202;2023-07-30T09:24:51;96864.69;;;27.88;54.05
17209;BME280;8720;48.488;9.202;2023-07-30T09:27:21;96871.78;;;27.79;53.81
17209;BME280;8720;48.488;9.202;2023-07-30T09:29:53;96880.28;;;27.75;53.83
17209;BME280;8720;48.488;9.202;2023-07-30T09:32:25;96878.63;;;27.64;53.25
17209;BME280;8720;48.488;9.202;2023-07-30T09:34:53;96873.69;;;27.50;53.29
17209;BME280;8720;48.488;9.202;2023-07-30T09:37:21;96879.53;;;27.36;53.42
17209;BME280;8720;48.488;9.202;2023-07-30T09:39:49;96885.28;;;27.22;53.10
17209;BME280;8720;48.488;9.202;2023-07-30T09:42:16;96889.25;;;27.09;53.15
17209;BME280;8720;48.488;9.202;2023-07-30T09:44:47;96886.72;;;26.98;53.28
17209;BME280;8720;48.488;9.202;2023-07-30T09:47:15;96875.38;;;26.84;53.00
17209;BME280;8720;48.488;9.202;2023-07-30T09:49:44;96901.63;;;26.71;52.84
17209;BME280;8720;48.488;9.202;2023-07-30T09:52:13;96910.03;;;26.57;53.07
17209;BME280;8720;48.488;9.202;2023-07-30T09:54:41;96913.56;;;26.48;53.34
17209;BME280;8720;48.488;9.202;2023-07-30T09:57:08;96904.38;;;26.41;53.32
17209;BME280;8720;48.488;9.202;2023-07-30T09:59:36;96910.84;;;26.39;53.62
17209;BME280;8720;48.488;9.202;2023-07-30T10:02:07;96913.81;;;26.36;52.99
17209;BME280;8720;48.488;9.202;2023-07-30T10:04:40;96913.81;;;26.36;52.73
17209;BME280;8720;48.488;9.202;2023-07-30T10:07:18;96926.22;;;26.37;52.39
17209;BME280;8720;48.488;9.202;2023-07-30T10:09:48;96933.41;;;26.36;52.30
17209;BME280;8720;48.488;9.202;2023-07-30T10:12:22;96928.19;;;26.35;51.90
17209;BME280;8720;48.488;9.202;2023-07-30T10:14:50;96924.78;;;26.33;51.92
17209;BME280;8720;48.488;9.202;2023-07-30T10:17:18;96943.44;;;26.34;52.88
17209;BME280;8720;48.488;9.202;2023-07-30T10:19:47;96941.59;;;26.35;52.04
17209;BME280;8720;48.488;9.202;2023-07-30T10:22:26;96938.06;;;26.34;52.14
17209;BME280;8720;48.488;9.202;2023-07-30T10:24:58;96941.75;;;26.33;52.32
17209;BME280;8720;48.488;9.202;2023-07-30T10:27:27;96955.16;;;26.33;51.91
17209;BME280;8720;48.488;9.202;2023-07-30T10:30:11;96952.75;;;26.30;52.17
17209;BME280;8720;48.488;9.202;2023-07-30T10:32:40;96956.56;;;26.28;52.11
17209;BME280;8720;48.488;9.202;2023-07-30T10:35:08;96952.88;;;26.29;51.85
17209;BME280;8720;48.488;9.202;2023-07-30T10:37:45;96962.88;;;26.27;51.38
17209;BME280;8720;48.488;9.202;2023-07-30T10:40:17;96959.38;;;26.26;51.93
17209;BME280;8720;48.488;9.202;2023-07-30T10:42:45;96957.53;;;26.27;52.00
17209;BME280;8720;48.488;9.202;2023-07-30T10:45:12;96958.25;;;26.29;52.08
17209;BME280;8720;48.488;9.202;2023-07-30T10:47:41;96950.78;;;26.32;51.63
17209;BME280;8720;48.488;9.202;2023-07-30T10:50:09;96953.78;;;26.39;51.67
17209;BME280;8720;48.488;9.202;2023-07-30T10:52:40;96946.75;;;26.47;50.80
17209;BME280;8720;48.488;9.202;2023-07-30T10:55:08;96949.63;;;26.55;50.84
17209;BME280;8720;48.488;9.202;2023-07-30T10:57:36;96941.69;;;26.63;50.63
17209;BME280;8720;48.488;9.202;2023-07-30T11:00:07;96937.25;;;26.73;50.21
17209;BME280;8720;48.488;9.202;2023-07-30T11:02:35;96928.94;;;26.86;50.05
17209;BME280;8720;48.488;9.202;2023-07-30T11:05:13;96929.53;;;26.99;49.94
17209;BME280;8720;48.488;9.202;2023-07-30T11:07:51;96932.78;;;27.12;50.37
17209;BME280;8720;48.488;9.202;2023-07-30T11:10:19;96926.00;;;27.27;50.04
17209;BME280;8720;48.488;9.202;2023-07-30T11:12:48;96918.25;;;27.43;49.14
17209;BME280;8720;48.488;9.202;2023-07-30T11:15:16;96916.28;;;27.55;49.06
17209;BME280;8720;48.488;9.202;2023-07-30T11:17:43;96914.53;;;27.63;48.86
17209;BME280;8720;48.488;9.202;2023-07-30T11:20:23;96921.06;;;27.70;48.31
17209;BME280;8720;48.488;9.202;2023-07-30T11:22:53;96896.31;;;27.67;48.47
17209;BME280;8720;48.488;9.202;2023-07-30T11:25:21;96923.16;;;27.86;48.11
17209;BME280;8720;48.488;9.202;2023-07-30T11:27:49;96925.28;;;27.92;47.88
17209;BME280;8720;48.488;9.202;2023-07-30T11:30:17;96911.56;;;27.95;47.64
17209;BME280;8720;48.488;9.202;2023-07-30T11:32:45;96918.50;;;27.98;47.78
17209;BME280;8720;48.488;9.202;2023-07-30T11:35:16;96911.25;;;27.98;47.61
17209;BME280;8720;48.488;9.202;2023-07-30T11:37:44;96912.09;;;27.99;47.21
17209;BME280;8720;48.488;9.202;2023-07-30T11:40:13;96911.25;;;27.98;46.83
17209;BME280;8720;48.488;9.202;2023-07-30T11:42:41;96913.94;;;27.98;46.88
17209;BME280;8720;48.488;9.202;2023-07-30T11:45:19;96910.56;;;27.96;46.61
17209;BME280;8720;48.488;9.202;2023-07-30T11:47:46;96929.66;;;27.93;46.63
17209;BME280;8720;48.488;9.202;2023-07-30T11:50:17;96925.41;;;27.91;46.67
17209;BME280;8720;48.488;9.202;2023-07-30T11:52:53;96923.00;;;27.88;46.18
17209;BME280;8720;48.488;9.202;2023-07-30T11:55:22;96925.69;;;27.88;45.70
17209;BME280;8720;48.488;9.202;2023-07-30T11:57:51;96908.03;;;27.75;45.63
17209;BME280;8720;48.488;9.202;2023-07-30T12:00:21;96933.19;;;27.94;45.38
17209;BME280;8720;48.488;9.202;2023-07-30T12:02:48;96934.63;;;27.98;44.76
17209;BME280;8720;48.488;9.202;2023-07-30T12:05:17;96942.41;;;28.01;44.90
17209;BME280;8720;48.488;9.202;2023-07-30T12:07:47;96942.69;;;28.07;44.59
17209;BME280;8720;48.488;9.202;2023-07-30T12:10:15;96940.94;;;28.16;44.47
17209;BME280;8720;48.488;9.202;2023-07-30T12:12:50;96941.19;;;28.22;44.42
17209;BME280;8720;48.488;9.202;2023-07-30T12:15:18;96940.19;;;28.23;43.99
17209;BME280;8720;48.488;9.202;2023-07-30T12:17:46;96938.47;;;28.32;43.61
17209;BME280;8720;48.488;9.202;2023-07-30T12:20:13;96931.09;;;28.34;43.29
17209;BME280;8720;48.488;9.202;2023-07-30T12:22:41;96929.13;;;28.36;43.62
17209;BME280;8720;48.488;9.202;2023-07-30T12:25:10;96924.44;;;28.38;43.54
17209;BME280;8720;48.488;9.202;2023-07-30T12:27:37;96934.34;;;28.37;42.65
17209;BME280;8720;48.488;9.202;2023-07-30T12:30:07;96923.88;;;28.34;42.61
17209;BME280;8720;48.488;9.202;2023-07-30T12:32:35;96925.88;;;28.32;42.94
17209;BME280;8720;48.488;9.202;2023-07-30T12:35:03;96919.78;;;28.30;42.80
17209;BME280;8720;48.488;9.202;2023-07-30T12:37:30;96919.63;;;28.32;42.55
17209;BME280;8720;48.488;9.202;2023-07-30T12:39:58;96914.81;;;28.35;42.67
17209;BME280;8720;48.488;9.202;2023-07-30T12:42:26;96916.19;;;28.39;42.09
17209;BME280;8720;48.488;9.202;2023-07-30T12:44:53;96907.97;;;28.41;41.84
17209;BME280;8720;48.488;9.202;2023-07-30T12:47:22;96910.81;;;28.39;41.46
17209;BME280;8720;48.488;9.202;2023-07-30T12:49:49;96909.69;;;28.42;42.41
17209;BME280;8720;48.488;9.202;2023-07-30T12:52:16;96919.84;;;28.48;41.90
17209;BME280;8720;48.488;9.202;2023-07-30T12:54:44;96915.19;;;28.50;41.75
17209;BME280;8720;48.488;9.202;2023-07-30T12:57:11;96926.91;;;28.58;41.42
17209;BME280;8720;48.488;9.202;2023-07-30T12:59:38;96927.16;;;28.65;41.31
17209;BME280;8720;48.488;9.202;2023-07-30T13:02:06;96925.56;;;28.72;41.72
17209;BME280;8720;48.488;9.202;2023-07-30T13:04:34;96927.22;;;28.83;41.33
17209;BME280;8720;48.488;9.202;2023-07-30T13:07:02;96932.81;;;28.89;41.47
17209;BME280;8720;48.488;9.202;2023-07-30T13:09:30;96933.25;;;28.94;41.20
17209;BME280;8720;48.488;9.202;2023-07-30T13:11:58;96925.38;;;29.01;41.13
17209;BME280;8720;48.488;9.202;2023-07-30T13:14:25;96937.25;;;29.08;40.73
17209;BME280;8720;48.488;9.202;2023-07-30T13:16:53;96926.88;;;29.13;40.60
17209;BME280;8720;48.488;9.202;2023-07-30T13:19:20;96919.19;;;29.18;40.37
17209;BME280;8720;48.488;9.202;2023-07-30T13:21:48;96928.66;;;29.22;40.70